createdAt,value
2023-02-08T00:00:26.227Z,1037.84
2023-02-08T00:01:26.227Z,1037.83
2023-02-08T00:02:26.263Z,1037.83
2023-02-08T00:03:26.224Z,1037.82
2023-02-08T00:04:26.204Z,1037.83
2023-02-08T00:05:26.201Z,1037.83
2023-02-08T00:06:26.189Z,1037.82
2023-02-08T00:07:26.173Z,1037.81
2023-02-08T00:08:26.167Z,1037.80
2023-02-08T00:09:26.159Z,1037.79
2023-02-08T00:10:26.133Z,1037.78
2023-02-08T00:11:26.127Z,1037.78
2023-02-08T00:12:26.115Z,1037.78
2023-02-08T00:13:26.110Z,1037.77
2023-02-08T00:14:26.116Z,1037.77
2023-02-08T00:15:26.109Z,1037.77
2023-02-08T00:16:26.128Z,1037.77
2023-02-08T00:17:26.101Z,1037.76
2023-02-08T00:18:26.071Z,1037.76
2023-02-08T00:19:26.083Z,1037.75
2023-02-08T00:20:26.056Z,1037.75
2023-02-08T00:21:26.018Z,1037.76
2023-02-08T00:22:26.008Z,1037.76
2023-02-08T00:23:26.036Z,1037.75
2023-02-08T00:24:26.027Z,1037.74
2023-02-08T00:25:25.982Z,1037.73
2023-02-08T00:26:26.000Z,1037.73
2023-02-08T00:27:25.977Z,1037.74
2023-02-08T00:28:26.062Z,1037.74
2023-02-08T00:29:25.955Z,1037.76
2023-02-08T00:30:25.955Z,1037.77
2023-02-08T00:31:26.018Z,1037.79
2023-02-08T00:32:25.908Z,1037.79
2023-02-08T00:33:25.898Z,1037.79
2023-02-08T00:34:25.963Z,1037.79
2023-02-08T00:35:25.878Z,1037.79
2023-02-08T00:36:25.866Z,1037.78
2023-02-08T00:37:25.862Z,1037.77
2023-02-08T00:38:25.850Z,1037.75
2023-02-08T00:39:25.851Z,1037.74
2023-02-08T00:40:25.825Z,1037.73
2023-02-08T00:41:26.090Z,1037.73
2023-02-08T00:42:25.809Z,1037.74
2023-02-08T00:43:25.794Z,1037.73
2023-02-08T00:44:25.788Z,1037.72
2023-02-08T00:45:25.782Z,1037.71
2023-02-08T00:46:25.858Z,1037.71
2023-02-08T00:47:25.757Z,1037.71
2023-02-08T00:48:25.747Z,1037.71
2023-02-08T00:49:25.754Z,1037.72
2023-02-08T00:50:25.727Z,1037.72
2023-02-08T00:51:25.744Z,1037.72
2023-02-08T00:52:25.727Z,1037.72
2023-02-08T00:53:25.700Z,1037.72
2023-02-08T00:54:25.698Z,1037.71
2023-02-08T00:55:25.670Z,1037.72
2023-02-08T00:56:25.660Z,1037.73
2023-02-08T00:57:25.662Z,1037.74
2023-02-08T00:58:25.644Z,1037.74
2023-02-08T00:59:25.652Z,1037.74
2023-02-08T01:00:25.660Z,1037.72
2023-02-08T01:01:25.614Z,1037.72
2023-02-08T01:02:25.615Z,1037.72
2023-02-08T01:03:25.606Z,1037.72
2023-02-08T01:04:25.598Z,1037.72
2023-02-08T01:05:25.569Z,1037.72
2023-02-08T01:06:25.557Z,1037.74
2023-02-08T01:07:25.554Z,1037.75
2023-02-08T01:08:25.544Z,1037.77
2023-02-08T01:09:25.541Z,1037.79
2023-02-08T01:10:25.544Z,1037.80
2023-02-08T01:11:25.542Z,1037.81
2023-02-08T01:12:25.503Z,1037.82
2023-02-08T01:13:25.484Z,1037.82
2023-02-08T01:14:25.514Z,1037.82
2023-02-08T01:15:25.471Z,1037.83
2023-02-08T01:16:25.566Z,1037.83
2023-02-08T01:17:25.445Z,1037.83
2023-02-08T01:18:25.442Z,1037.84
2023-02-08T01:19:25.448Z,1037.84
2023-02-08T01:20:25.426Z,1037.85
2023-02-08T01:21:25.405Z,1037.85
2023-02-08T01:22:25.419Z,1037.85
2023-02-08T01:23:25.380Z,1037.82
2023-02-08T01:24:25.392Z,1037.82
2023-02-08T01:25:25.363Z,1037.84
2023-02-08T01:26:25.387Z,1037.85
2023-02-08T01:27:25.352Z,1037.85
2023-02-08T01:28:25.421Z,1037.85
2023-02-08T01:29:25.367Z,1037.84
2023-02-08T01:30:25.391Z,1037.84
2023-02-08T01:31:25.534Z,1037.85
2023-02-08T01:32:25.302Z,1037.83
2023-02-08T01:33:25.296Z,1037.82
2023-02-08T01:34:25.302Z,1037.80
2023-02-08T01:35:25.276Z,1037.79
2023-02-08T01:36:25.324Z,1037.78
2023-02-08T01:37:25.241Z,1037.78
2023-02-08T01:38:25.275Z,1037.77
2023-02-08T01:39:25.274Z,1037.76
2023-02-08T01:40:25.217Z,1037.75
2023-02-08T01:41:25.203Z,1037.76
2023-02-08T01:42:25.224Z,1037.75
2023-02-08T01:43:25.213Z,1037.75
2023-02-08T01:44:25.188Z,1037.76
2023-02-08T01:45:25.352Z,1037.77
2023-02-08T01:46:25.158Z,1037.77
2023-02-08T01:47:25.171Z,1037.76
2023-02-08T01:48:25.137Z,1037.75
2023-02-08T01:49:25.163Z,1037.75
2023-02-08T01:50:25.130Z,1037.74
2023-02-08T01:51:25.131Z,1037.73
2023-02-08T01:52:25.119Z,1037.75
2023-02-08T01:53:25.081Z,1037.76
2023-02-08T01:54:25.113Z,1037.77
2023-02-08T01:55:25.067Z,1037.76
2023-02-08T01:56:25.081Z,1037.76
2023-02-08T01:57:25.048Z,1037.75
2023-02-08T01:58:25.041Z,1037.74
2023-02-08T01:59:25.037Z,1037.75
2023-02-08T02:00:25.016Z,1037.77
2023-02-08T02:01:25.038Z,1037.78
2023-02-08T02:02:25.008Z,1037.79
2023-02-08T02:03:24.981Z,1037.80
2023-02-08T02:04:25.063Z,1037.79
2023-02-08T02:05:24.988Z,1037.78
2023-02-08T02:06:24.998Z,1037.77
2023-02-08T02:07:24.957Z,1037.75
2023-02-08T02:08:24.938Z,1037.74
2023-02-08T02:09:24.958Z,1037.73
2023-02-08T02:10:24.928Z,1037.73
2023-02-08T02:11:24.905Z,1037.73
2023-02-08T02:12:24.933Z,1037.73
2023-02-08T02:13:24.886Z,1037.72
2023-02-08T02:14:24.893Z,1037.70
2023-02-08T02:15:24.863Z,1037.70
2023-02-08T02:16:24.910Z,1037.69
2023-02-08T02:17:24.843Z,1037.69
2023-02-08T02:18:24.849Z,1037.68
2023-02-08T02:19:24.884Z,1037.68
2023-02-08T02:20:24.822Z,1037.69
2023-02-08T02:21:24.806Z,1037.70
2023-02-08T02:22:24.822Z,1037.71
2023-02-08T02:23:24.784Z,1037.72
2023-02-08T02:24:24.798Z,1037.73
2023-02-08T02:25:24.802Z,1037.74
2023-02-08T02:26:24.757Z,1037.75
2023-02-08T02:27:24.753Z,1037.76
2023-02-08T02:28:24.899Z,1037.76
2023-02-08T02:29:24.779Z,1037.76
2023-02-08T02:30:24.768Z,1037.78
2023-02-08T02:31:24.753Z,1037.79
2023-02-08T02:32:24.698Z,1037.81
2023-02-08T02:33:24.688Z,1037.80
2023-02-08T02:34:24.677Z,1037.79
2023-02-08T02:35:24.726Z,1037.75
2023-02-08T02:36:24.660Z,1037.74
2023-02-08T02:37:24.640Z,1037.76
2023-02-08T02:38:24.639Z,1037.77
2023-02-08T02:39:24.643Z,1037.79
2023-02-08T02:40:24.657Z,1037.80
2023-02-08T02:41:24.604Z,1037.80
2023-02-08T02:42:24.626Z,1037.80
2023-02-08T02:43:24.584Z,1037.81
2023-02-08T02:44:24.584Z,1037.81
2023-02-08T02:45:24.587Z,1037.81
2023-02-08T02:46:24.563Z,1037.81
2023-02-08T02:47:24.541Z,1037.81
2023-02-08T02:48:24.597Z,1037.80
2023-02-08T02:49:24.534Z,1037.80
2023-02-08T02:50:24.546Z,1037.80
2023-02-08T02:51:24.528Z,1037.81
2023-02-08T02:52:24.542Z,1037.82
2023-02-08T02:53:24.494Z,1037.85
2023-02-08T02:54:24.500Z,1037.87
2023-02-08T02:55:24.506Z,1037.88
2023-02-08T02:56:24.486Z,1037.87
2023-02-08T02:57:24.491Z,1037.89
2023-02-08T02:58:24.446Z,1037.89
2023-02-08T02:59:24.438Z,1037.89
2023-02-08T03:00:24.438Z,1037.90
2023-02-08T03:01:24.421Z,1037.92
2023-02-08T03:02:24.469Z,1037.92
2023-02-08T03:03:24.419Z,1037.92
2023-02-08T03:04:24.412Z,1037.92
2023-02-08T03:05:24.387Z,1037.93
2023-02-08T03:06:24.377Z,1037.92
2023-02-08T03:07:24.434Z,1037.91
2023-02-08T03:08:24.362Z,1037.90
2023-02-08T03:09:24.368Z,1037.90
2023-02-08T03:10:24.372Z,1037.88
2023-02-08T03:11:24.375Z,1037.87
2023-02-08T03:12:24.331Z,1037.87
2023-02-08T03:13:24.298Z,1037.87
2023-02-08T03:14:24.317Z,1037.87
2023-02-08T03:15:24.283Z,1037.87
2023-02-08T03:16:24.270Z,1037.88
2023-02-08T03:17:24.280Z,1037.88
2023-02-08T03:18:24.246Z,1037.88
2023-02-08T03:19:24.236Z,1037.87
2023-02-08T03:20:24.245Z,1037.88
2023-02-08T03:21:24.235Z,1037.87
2023-02-08T03:22:24.213Z,1037.86
2023-02-08T03:23:24.217Z,1037.85
2023-02-08T03:24:24.196Z,1037.84
2023-02-08T03:25:24.216Z,1037.83
2023-02-08T03:26:24.172Z,1037.83
2023-02-08T03:27:24.183Z,1037.82
2023-02-08T03:28:24.183Z,1037.81
2023-02-08T03:29:24.148Z,1037.81
2023-02-08T03:30:24.158Z,1037.82
2023-02-08T03:31:24.196Z,1037.83
2023-02-08T03:32:24.120Z,1037.84
2023-02-08T03:33:24.123Z,1037.84
2023-02-08T03:34:24.140Z,1037.84
2023-02-08T03:35:24.101Z,1037.85
2023-02-08T03:36:24.081Z,1037.88
2023-02-08T03:37:24.074Z,1037.89
2023-02-08T03:38:24.080Z,1037.89
2023-02-08T03:39:24.051Z,1037.88
2023-02-08T03:40:24.071Z,1037.86
2023-02-08T03:41:24.041Z,1037.85
2023-02-08T03:42:24.029Z,1037.83
2023-02-08T03:43:24.001Z,1037.82
2023-02-08T03:44:24.010Z,1037.82
2023-02-08T03:45:24.024Z,1037.83
2023-02-08T03:46:24.009Z,1037.83
2023-02-08T03:47:23.970Z,1037.84
2023-02-08T03:48:23.967Z,1037.85
2023-02-08T03:49:23.950Z,1037.83
2023-02-08T03:50:23.955Z,1037.82
2023-02-08T03:51:23.923Z,1037.83
2023-02-08T03:52:23.923Z,1037.82
2023-02-08T03:53:23.953Z,1037.84
2023-02-08T03:54:23.901Z,1037.84
2023-02-08T03:55:23.905Z,1037.86
2023-02-08T03:56:23.875Z,1037.86
2023-02-08T03:57:30.103Z,1037.84
2023-02-08T03:58:23.854Z,1037.84
2023-02-08T03:59:23.846Z,1037.83
2023-02-08T04:00:23.905Z,1037.82
2023-02-08T04:01:23.881Z,1037.83
2023-02-08T04:02:23.817Z,1037.82
2023-02-08T04:03:23.801Z,1037.81
2023-02-08T04:04:23.806Z,1037.82
2023-02-08T04:05:23.819Z,1037.82
2023-02-08T04:06:23.789Z,1037.82
2023-02-08T04:07:23.762Z,1037.82
2023-02-08T04:08:23.756Z,1037.81
2023-02-08T04:09:23.751Z,1037.82
2023-02-08T04:10:23.756Z,1037.82
2023-02-08T04:11:23.727Z,1037.82
2023-02-08T04:12:23.723Z,1037.83
2023-02-08T04:13:23.703Z,1037.83
2023-02-08T04:14:23.703Z,1037.83
2023-02-08T04:15:23.691Z,1037.83
2023-02-08T04:16:23.683Z,1037.82
2023-02-08T04:17:23.665Z,1037.82
2023-02-08T04:18:23.655Z,1037.84
2023-02-08T04:19:23.641Z,1037.85
2023-02-08T04:20:23.763Z,1037.84
2023-02-08T04:21:23.621Z,1037.85
2023-02-08T04:22:23.618Z,1037.85
2023-02-08T04:23:23.608Z,1037.84
2023-02-08T04:24:23.601Z,1037.82
2023-02-08T04:25:23.596Z,1037.81
2023-02-08T04:26:23.581Z,1037.83
2023-02-08T04:27:23.564Z,1037.84
2023-02-08T04:28:23.608Z,1037.86
2023-02-08T04:29:23.555Z,1037.88
2023-02-08T04:30:23.605Z,1037.88
2023-02-08T04:31:23.617Z,1037.89
2023-02-08T04:32:23.518Z,1037.89
2023-02-08T04:33:23.511Z,1037.89
2023-02-08T04:34:23.498Z,1037.91
2023-02-08T04:35:23.498Z,1037.92
2023-02-08T04:36:23.483Z,1037.91
2023-02-08T04:37:23.467Z,1037.90
2023-02-08T04:38:23.465Z,1037.89
2023-02-08T04:39:23.438Z,1037.87
2023-02-08T04:40:23.461Z,1037.86
2023-02-08T04:41:23.432Z,1037.84
2023-02-08T04:42:23.417Z,1037.82
2023-02-08T04:43:23.406Z,1037.80
2023-02-08T04:44:23.412Z,1037.79
2023-02-08T04:45:23.425Z,1037.79
2023-02-08T04:46:23.430Z,1037.77
2023-02-08T04:47:23.377Z,1037.76
2023-02-08T04:48:23.368Z,1037.76
2023-02-08T04:49:23.349Z,1037.77
2023-02-08T04:50:23.385Z,1037.78
2023-02-08T04:51:23.328Z,1037.78
2023-02-08T04:52:23.321Z,1037.79
2023-02-08T04:53:23.320Z,1037.80
2023-02-08T04:54:23.318Z,1037.80
2023-02-08T04:55:23.305Z,1037.80
2023-02-08T04:56:23.277Z,1037.81
2023-02-08T04:57:23.276Z,1037.81
2023-02-08T04:58:23.266Z,1037.81
2023-02-08T04:59:23.255Z,1037.80
2023-02-08T05:00:23.257Z,1037.80
2023-02-08T05:01:23.254Z,1037.80
2023-02-08T05:02:23.228Z,1037.80
2023-02-08T05:03:23.231Z,1037.81
2023-02-08T05:04:23.190Z,1037.82
2023-02-08T05:05:23.337Z,1037.84
2023-02-08T05:06:23.169Z,1037.86
2023-02-08T05:07:23.170Z,1037.87
2023-02-08T05:08:23.165Z,1037.88
2023-02-08T05:09:23.147Z,1037.87
2023-02-08T05:10:23.163Z,1037.88
2023-02-08T05:11:23.136Z,1037.89
2023-02-08T05:12:23.187Z,1037.89
2023-02-08T05:13:23.161Z,1037.91
2023-02-08T05:14:23.110Z,1037.92
2023-02-08T05:15:23.116Z,1037.93
2023-02-08T05:16:23.158Z,1037.92
2023-02-08T05:17:23.062Z,1037.91
2023-02-08T05:18:23.052Z,1037.89
2023-02-08T05:19:23.044Z,1037.89
2023-02-08T05:20:23.057Z,1037.89
2023-02-08T05:21:23.024Z,1037.88
2023-02-08T05:22:23.017Z,1037.88
2023-02-08T05:23:23.011Z,1037.88
2023-02-08T05:24:22.992Z,1037.89
2023-02-08T05:25:23.005Z,1037.88
2023-02-08T05:26:22.975Z,1037.88
2023-02-08T05:27:22.967Z,1037.87
2023-02-08T05:28:23.012Z,1037.87
2023-02-08T05:29:22.946Z,1037.88
2023-02-08T05:30:22.979Z,1037.88
2023-02-08T05:31:23.113Z,1037.89
2023-02-08T05:32:22.913Z,1037.90
2023-02-08T05:33:22.923Z,1037.91
2023-02-08T05:34:22.894Z,1037.92
2023-02-08T05:35:22.910Z,1037.94
2023-02-08T05:36:22.886Z,1037.96
2023-02-08T05:37:22.885Z,1037.97
2023-02-08T05:38:22.850Z,1037.97
2023-02-08T05:39:22.847Z,1037.99
2023-02-08T05:40:22.864Z,1037.98
2023-02-08T05:41:22.836Z,1037.97
2023-02-08T05:42:22.817Z,1037.97
2023-02-08T05:43:22.813Z,1037.98
2023-02-08T05:44:22.806Z,1037.98
2023-02-08T05:45:22.800Z,1038.00
2023-02-08T05:46:22.789Z,1038.01
2023-02-08T05:47:22.769Z,1038.02
2023-02-08T05:48:22.759Z,1038.03
2023-02-08T05:49:22.745Z,1038.04
2023-02-08T05:50:22.751Z,1038.03
2023-02-08T05:51:22.734Z,1038.04
2023-02-08T05:52:22.710Z,1038.03
2023-02-08T05:53:22.716Z,1038.02
2023-02-08T05:54:22.697Z,1038.01
2023-02-08T05:55:22.691Z,1038.01
2023-02-08T05:56:22.700Z,1038.01
2023-02-08T05:57:22.687Z,1038.02
2023-02-08T05:58:22.665Z,1038.03
2023-02-08T05:59:22.647Z,1038.04
2023-02-08T06:00:22.600Z,1038.05
2023-02-08T06:01:22.650Z,1038.05
2023-02-08T06:02:22.620Z,1038.04
2023-02-08T06:03:22.685Z,1038.04
2023-02-08T06:04:22.687Z,1038.04
2023-02-08T06:05:22.583Z,1038.04
2023-02-08T06:06:22.634Z,1038.06
2023-02-08T06:07:22.559Z,1038.07
2023-02-08T06:08:22.518Z,1038.07
2023-02-08T06:09:22.519Z,1038.06
2023-02-08T06:10:22.487Z,1038.07
2023-02-08T06:11:22.492Z,1038.10
2023-02-08T06:12:22.478Z,1038.11
2023-02-08T06:13:22.458Z,1038.13
2023-02-08T06:14:22.442Z,1038.16
2023-02-08T06:15:22.449Z,1038.19
2023-02-08T06:16:22.486Z,1038.19
2023-02-08T06:17:22.439Z,1038.21
2023-02-08T06:18:22.402Z,1038.21
2023-02-08T06:19:22.422Z,1038.22
2023-02-08T06:20:22.395Z,1038.21
2023-02-08T06:21:24.404Z,1038.21
2023-02-08T06:22:22.356Z,1038.21
2023-02-08T06:23:22.366Z,1038.21
2023-02-08T06:24:22.333Z,1038.22
2023-02-08T06:25:22.388Z,1038.23
2023-02-08T06:26:22.350Z,1038.24
2023-02-08T06:27:22.485Z,1038.25
2023-02-08T06:28:22.664Z,1038.27
2023-02-08T06:29:22.550Z,1038.29
2023-02-08T06:30:22.471Z,1038.30
2023-02-08T06:31:22.381Z,1038.32
2023-02-08T06:32:22.359Z,1038.33
2023-02-08T06:33:22.400Z,1038.32
2023-02-08T06:34:22.278Z,1038.32
2023-02-08T06:35:22.234Z,1038.33
2023-02-08T06:36:22.277Z,1038.33
2023-02-08T06:37:22.295Z,1038.33
2023-02-08T06:38:22.222Z,1038.33
2023-02-08T06:39:22.245Z,1038.33
2023-02-08T06:40:22.199Z,1038.32
2023-02-08T06:41:22.186Z,1038.31
2023-02-08T06:42:22.165Z,1038.31
2023-02-08T06:43:22.169Z,1038.32
2023-02-08T06:44:22.160Z,1038.33
2023-02-08T06:45:22.144Z,1038.34
2023-02-08T06:46:22.161Z,1038.33
2023-02-08T06:47:22.124Z,1038.34
2023-02-08T06:48:22.095Z,1038.33
2023-02-08T06:49:22.102Z,1038.33
2023-02-08T06:50:24.095Z,1038.34
2023-02-08T06:51:22.092Z,1038.35
2023-02-08T06:52:22.087Z,1038.35
2023-02-08T06:53:22.055Z,1038.36
2023-02-08T06:54:22.077Z,1038.37
2023-02-08T06:55:22.031Z,1038.37
2023-02-08T06:56:22.120Z,1038.37
2023-02-08T06:57:22.011Z,1038.37
2023-02-08T06:58:22.008Z,1038.37
2023-02-08T06:59:22.011Z,1038.37
2023-02-08T07:00:21.997Z,1038.38
2023-02-08T07:01:22.141Z,1038.37
2023-02-08T07:02:22.073Z,1038.36
2023-02-08T07:03:21.949Z,1038.34
2023-02-08T07:04:21.938Z,1038.34
2023-02-08T07:05:21.933Z,1038.33
2023-02-08T07:06:21.960Z,1038.33
2023-02-08T07:07:21.924Z,1038.34
2023-02-08T07:08:21.900Z,1038.34
2023-02-08T07:09:21.906Z,1038.37
2023-02-08T07:10:21.881Z,1038.39
2023-02-08T07:11:21.901Z,1038.40
2023-02-08T07:12:21.863Z,1038.40
2023-02-08T07:13:21.865Z,1038.39
2023-02-08T07:14:21.858Z,1038.38
2023-02-08T07:15:21.838Z,1038.36
2023-02-08T07:16:21.989Z,1038.35
2023-02-08T07:17:21.865Z,1038.32
2023-02-08T07:18:21.799Z,1038.31
2023-02-08T07:19:21.809Z,1038.29
2023-02-08T07:20:21.781Z,1038.26
2023-02-08T07:21:21.804Z,1038.24
2023-02-08T07:22:22.598Z,1038.23
2023-02-08T07:23:21.753Z,1038.23
2023-02-08T07:24:21.793Z,1038.24
2023-02-08T07:25:21.747Z,1038.24
2023-02-08T07:26:21.726Z,1038.24
2023-02-08T07:27:21.722Z,1038.23
2023-02-08T07:28:21.841Z,1038.24
2023-02-08T07:29:21.732Z,1038.22
2023-02-08T07:30:21.693Z,1038.22
2023-02-08T07:31:21.717Z,1038.22
2023-02-08T07:32:21.667Z,1038.22
2023-02-08T07:33:21.663Z,1038.23
2023-02-08T07:34:21.671Z,1038.23
2023-02-08T07:35:21.655Z,1038.24
2023-02-08T07:36:21.669Z,1038.24
2023-02-08T07:37:21.616Z,1038.24
2023-02-08T07:38:21.615Z,1038.25
2023-02-08T07:39:21.639Z,1038.25
2023-02-08T07:40:21.593Z,1038.27
2023-02-08T07:41:21.587Z,1038.30
2023-02-08T07:42:21.580Z,1038.31
2023-02-08T07:43:21.576Z,1038.34
2023-02-08T07:44:21.575Z,1038.35
2023-02-08T07:45:21.542Z,1038.37
2023-02-08T07:46:21.582Z,1038.40
2023-02-08T07:47:21.529Z,1038.42
2023-02-08T07:48:21.516Z,1038.44
2023-02-08T07:49:21.518Z,1038.44
2023-02-08T07:50:21.517Z,1038.46
2023-02-08T07:51:21.508Z,1038.47
2023-02-08T07:52:21.472Z,1038.47
2023-02-08T07:53:21.465Z,1038.46
2023-02-08T07:54:21.456Z,1038.47
2023-02-08T07:55:21.440Z,1038.45
2023-02-08T07:56:21.462Z,1038.45
2023-02-08T07:57:21.425Z,1038.45
2023-02-08T07:58:21.415Z,1038.44
2023-02-08T07:59:21.402Z,1038.45
2023-02-08T08:00:21.435Z,1038.46
2023-02-08T08:01:22.881Z,1038.46
2023-02-08T08:02:21.377Z,1038.47
2023-02-08T08:03:21.371Z,1038.47
2023-02-08T08:04:21.401Z,1038.50
2023-02-08T08:05:21.389Z,1038.51
2023-02-08T08:06:21.353Z,1038.53
2023-02-08T08:07:21.329Z,1038.54
2023-02-08T08:08:21.338Z,1038.55
2023-02-08T08:09:21.310Z,1038.56
2023-02-08T08:10:21.316Z,1038.56
2023-02-08T08:11:21.300Z,1038.57
2023-02-08T08:12:21.269Z,1038.58
2023-02-08T08:13:21.272Z,1038.60
2023-02-08T08:14:21.260Z,1038.61
2023-02-08T08:15:21.247Z,1038.63
2023-02-08T08:16:21.376Z,1038.64
2023-02-08T08:17:21.222Z,1038.64
2023-02-08T08:18:21.215Z,1038.65
2023-02-08T08:19:21.211Z,1038.67
2023-02-08T08:20:21.207Z,1038.68
2023-02-08T08:21:21.208Z,1038.67
2023-02-08T08:22:21.188Z,1038.69
2023-02-08T08:23:21.167Z,1038.70
2023-02-08T08:24:21.199Z,1038.72
2023-02-08T08:25:21.145Z,1038.75
2023-02-08T08:26:21.152Z,1038.75
2023-02-08T08:27:21.125Z,1038.77
2023-02-08T08:28:21.224Z,1038.77
2023-02-08T08:29:21.127Z,1038.76
2023-02-08T08:30:21.168Z,1038.78
2023-02-08T08:31:21.428Z,1038.76
2023-02-08T08:32:21.075Z,1038.77
2023-02-08T08:33:21.100Z,1038.77
2023-02-08T08:34:21.043Z,1038.77
2023-02-08T08:35:21.038Z,1038.76
2023-02-08T08:36:21.077Z,1038.76
2023-02-08T08:37:21.032Z,1038.75
2023-02-08T08:38:21.301Z,1038.72
2023-02-08T08:39:21.014Z,1038.70
2023-02-08T08:40:20.993Z,1038.70
2023-02-08T08:41:21.001Z,1038.69
2023-02-08T08:42:20.964Z,1038.69
2023-02-08T08:43:20.959Z,1038.68
2023-02-08T08:44:20.946Z,1038.67
2023-02-08T08:45:20.943Z,1038.64
2023-02-08T08:46:20.989Z,1038.61
2023-02-08T08:47:20.916Z,1038.59
2023-02-08T08:48:20.896Z,1038.56
2023-02-08T08:49:20.897Z,1038.55
2023-02-08T08:50:20.874Z,1038.54
2023-02-08T08:51:20.901Z,1038.51
2023-02-08T08:52:20.854Z,1038.51
2023-02-08T08:53:20.848Z,1038.51
2023-02-08T08:54:20.846Z,1038.51
2023-02-08T08:55:20.828Z,1038.51
2023-02-08T08:56:20.876Z,1038.51
2023-02-08T08:57:20.808Z,1038.50
2023-02-08T08:58:20.794Z,1038.49
2023-02-08T08:59:21.017Z,1038.48
2023-02-08T09:00:20.788Z,1038.47
2023-02-08T09:01:20.837Z,1038.46
2023-02-08T09:02:20.762Z,1038.43
2023-02-08T09:03:20.754Z,1038.43
2023-02-08T09:04:20.814Z,1038.42
2023-02-08T09:05:20.717Z,1038.41
2023-02-08T09:06:20.742Z,1038.43
2023-02-08T09:07:20.704Z,1038.41
2023-02-08T09:08:20.693Z,1038.39
2023-02-08T09:09:20.681Z,1038.39
2023-02-08T09:10:20.679Z,1038.37
2023-02-08T09:11:20.663Z,1038.36
2023-02-08T09:12:20.644Z,1038.35
2023-02-08T09:13:20.628Z,1038.33
2023-02-08T09:14:20.630Z,1038.35
2023-02-08T09:15:20.610Z,1038.34
2023-02-08T09:16:20.662Z,1038.30
2023-02-08T09:17:20.583Z,1038.34
2023-02-08T09:18:20.600Z,1038.34
2023-02-08T09:19:20.566Z,1038.31
2023-02-08T09:20:20.582Z,1038.33
2023-02-08T09:21:20.569Z,1038.32
2023-02-08T09:22:20.536Z,1038.33
2023-02-08T09:23:20.527Z,1038.31
2023-02-08T09:24:20.550Z,1038.31
2023-02-08T09:25:20.508Z,1038.29
2023-02-08T09:26:20.513Z,1038.31
2023-02-08T09:27:20.502Z,1038.33
2023-02-08T09:28:20.511Z,1038.37
2023-02-08T09:29:20.460Z,1038.39
2023-02-08T09:30:20.576Z,1038.40
2023-02-08T09:31:20.671Z,1038.42
2023-02-08T09:32:20.436Z,1038.46
2023-02-08T09:33:20.427Z,1038.47
2023-02-08T09:34:20.421Z,1038.49
2023-02-08T09:35:20.406Z,1038.52
2023-02-08T09:36:20.428Z,1038.54
2023-02-08T09:37:20.385Z,1038.52
2023-02-08T09:38:20.376Z,1038.53
2023-02-08T09:39:20.350Z,1038.53
2023-02-08T09:40:20.364Z,1038.52
2023-02-08T09:41:20.365Z,1038.52
2023-02-08T09:42:20.353Z,1038.55
2023-02-08T09:43:20.310Z,1038.54
2023-02-08T09:44:20.319Z,1038.56
2023-02-08T09:45:20.308Z,1038.52
2023-02-08T09:46:20.315Z,1038.52
2023-02-08T09:47:20.291Z,1038.52
2023-02-08T09:48:20.294Z,1038.52
2023-02-08T09:49:20.246Z,1038.53
2023-02-08T09:50:20.338Z,1038.52
2023-02-08T09:51:20.278Z,1038.51
2023-02-08T09:52:20.226Z,1038.49
2023-02-08T09:53:20.220Z,1038.49
2023-02-08T09:54:20.216Z,1038.48
2023-02-08T09:55:20.186Z,1038.46
2023-02-08T09:56:20.200Z,1038.41
2023-02-08T09:57:20.170Z,1038.41
2023-02-08T09:58:20.159Z,1038.40
2023-02-08T09:59:20.157Z,1038.41
2023-02-08T10:00:20.222Z,1038.39
2023-02-08T10:01:20.240Z,1038.36
2023-02-08T10:02:20.125Z,1038.36
2023-02-08T10:03:20.111Z,1038.35
2023-02-08T10:04:20.111Z,1038.32
2023-02-08T10:05:20.106Z,1038.30
2023-02-08T10:06:20.095Z,1038.32
2023-02-08T10:07:20.074Z,1038.26
2023-02-08T10:08:20.057Z,1038.21
2023-02-08T10:09:20.042Z,1038.18
2023-02-08T10:10:20.076Z,1038.19
2023-02-08T10:11:20.031Z,1038.17
2023-02-08T10:12:20.012Z,1038.15
2023-02-08T10:13:21.462Z,1038.15
2023-02-08T10:14:20.004Z,1038.13
2023-02-08T10:15:19.984Z,1038.11
2023-02-08T10:16:20.063Z,1038.10
2023-02-08T10:17:19.966Z,1038.09
2023-02-08T10:18:20.057Z,1038.08
2023-02-08T10:19:19.939Z,1038.07
2023-02-08T10:20:19.989Z,1038.06
2023-02-08T10:21:19.935Z,1038.05
2023-02-08T10:22:19.935Z,1038.01
2023-02-08T10:23:22.336Z,1037.97
2023-02-08T10:24:19.954Z,1037.95
2023-02-08T10:25:19.900Z,1037.94
2023-02-08T10:26:19.858Z,1037.93
2023-02-08T10:27:19.875Z,1037.90
2023-02-08T10:28:19.889Z,1037.92
2023-02-08T10:29:19.846Z,1037.90
2023-02-08T10:30:20.101Z,1037.91
2023-02-08T10:31:20.025Z,1037.90
2023-02-08T10:32:19.832Z,1037.90
2023-02-08T10:33:19.806Z,1037.89
2023-02-08T10:34:19.825Z,1037.87
2023-02-08T10:35:19.757Z,1037.85
2023-02-08T10:36:19.904Z,1037.83
2023-02-08T10:37:19.751Z,1037.83
2023-02-08T10:38:19.739Z,1037.82
2023-02-08T10:39:19.726Z,1037.79
2023-02-08T10:40:19.727Z,1037.76
2023-02-08T10:41:19.776Z,1037.77
2023-02-08T10:42:19.745Z,1037.75
2023-02-08T10:43:19.694Z,1037.71
2023-02-08T10:44:19.703Z,1037.73
2023-02-08T10:45:24.636Z,1037.75
2023-02-08T10:46:19.687Z,1037.71
2023-02-08T10:47:19.672Z,1037.69
2023-02-08T10:48:20.636Z,1037.68
2023-02-08T10:49:19.606Z,1037.63
2023-02-08T10:50:19.613Z,1037.62
2023-02-08T10:51:20.684Z,1037.63
2023-02-08T10:52:19.600Z,1037.62
2023-02-08T10:53:19.599Z,1037.63
2023-02-08T10:54:19.611Z,1037.65
2023-02-08T10:55:19.538Z,1037.64
2023-02-08T10:56:19.580Z,1037.64
2023-02-08T10:57:19.542Z,1037.64
2023-02-08T10:58:19.514Z,1037.63
2023-02-08T10:59:19.500Z,1037.63
2023-02-08T11:00:19.496Z,1037.64
2023-02-08T11:01:19.562Z,1037.65
2023-02-08T11:02:19.468Z,1037.61
2023-02-08T11:03:19.457Z,1037.58
2023-02-08T11:04:19.491Z,1037.55
2023-02-08T11:05:19.444Z,1037.51
2023-02-08T11:06:19.448Z,1037.50
2023-02-08T11:07:19.423Z,1037.51
2023-02-08T11:08:19.446Z,1037.46
2023-02-08T11:09:19.389Z,1037.44
2023-02-08T11:10:19.410Z,1037.44
2023-02-08T11:11:19.368Z,1037.43
2023-02-08T11:12:19.413Z,1037.44
2023-02-08T11:13:19.356Z,1037.43
2023-02-08T11:14:19.350Z,1037.44
2023-02-08T11:15:19.339Z,1037.45
2023-02-08T11:16:19.344Z,1037.43
2023-02-08T11:17:19.314Z,1037.41
2023-02-08T11:18:19.318Z,1037.43
2023-02-08T11:19:19.281Z,1037.41
2023-02-08T11:20:19.291Z,1037.42
2023-02-08T11:21:19.261Z,1037.42
2023-02-08T11:22:19.278Z,1037.41
2023-02-08T11:23:19.237Z,1037.45
2023-02-08T11:24:19.234Z,1037.39
2023-02-08T11:25:19.223Z,1037.39
2023-02-08T11:26:19.267Z,1037.39
2023-02-08T11:27:19.209Z,1037.41
2023-02-08T11:28:19.239Z,1037.38
2023-02-08T11:29:19.315Z,1037.36
2023-02-08T11:30:19.182Z,1037.35
2023-02-08T11:31:19.244Z,1037.32
2023-02-08T11:32:19.204Z,1037.31
2023-02-08T11:33:19.138Z,1037.31
2023-02-08T11:34:19.125Z,1037.34
2023-02-08T11:35:19.117Z,1037.32
2023-02-08T11:36:19.134Z,1037.29
2023-02-08T11:37:19.150Z,1037.34
2023-02-08T11:38:19.087Z,1037.34
2023-02-08T11:39:19.069Z,1037.29
2023-02-08T11:40:19.082Z,1037.30
2023-02-08T11:41:19.110Z,1037.33
2023-02-08T11:42:19.096Z,1037.32
2023-02-08T11:43:19.036Z,1037.24
2023-02-08T11:44:19.024Z,1037.26
2023-02-08T11:45:19.008Z,1037.23
2023-02-08T11:46:19.028Z,1037.24
2023-02-08T11:47:21.443Z,1037.26
2023-02-08T11:48:18.994Z,1037.23
2023-02-08T11:49:18.961Z,1037.25
2023-02-08T11:50:18.966Z,1037.23
2023-02-08T11:51:18.946Z,1037.25
2023-02-08T11:52:18.946Z,1037.29
2023-02-08T11:53:18.959Z,1037.28
2023-02-08T11:54:18.912Z,1037.28
2023-02-08T11:55:18.923Z,1037.27
2023-02-08T11:56:18.926Z,1037.23
2023-02-08T11:57:18.885Z,1037.21
2023-02-08T11:58:18.875Z,1037.21
2023-02-08T11:59:18.872Z,1037.21
2023-02-08T12:00:18.879Z,1037.22
2023-02-08T12:01:18.862Z,1037.26
2023-02-08T12:02:18.883Z,1037.26
2023-02-08T12:03:18.893Z,1037.30
2023-02-08T12:04:18.806Z,1037.28
2023-02-08T12:05:18.791Z,1037.25